createdAt,value
2017-05-11T00:00:32.780Z,0
2017-05-11T00:01:34.150Z,0
2017-05-11T00:02:35.516Z,0
2017-05-11T00:03:36.877Z,0
2017-05-11T00:04:38.271Z,0
2017-05-11T00:05:39.644Z,0
2017-05-11T00:06:41.004Z,0
2017-05-11T00:07:42.370Z,0
2017-05-11T00:08:43.731Z,0
2017-05-11T00:09:45.087Z,0
2017-05-11T00:10:46.450Z,0
2017-05-11T00:11:47.812Z,0
2017-05-11T00:12:49.180Z,0
2017-05-11T00:13:50.565Z,0
2017-05-11T00:14:51.924Z,0
2017-05-11T00:15:53.289Z,0
2017-05-11T00:16:54.648Z,0
2017-05-11T00:17:56.013Z,0
2017-05-11T00:18:57.373Z,0
2017-05-11T00:19:58.764Z,0
2017-05-11T00:21:00.199Z,0
2017-05-11T00:22:01.675Z,0
2017-05-11T00:23:03.109Z,0
2017-05-11T00:24:04.592Z,0
2017-05-11T00:25:06.014Z,0
2017-05-11T00:26:07.524Z,0
2017-05-11T00:27:09.021Z,0
2017-05-11T00:28:10.522Z,0
2017-05-11T00:29:11.965Z,0
2017-05-11T00:30:13.489Z,0
2017-05-11T00:31:14.855Z,0
2017-05-11T00:32:16.211Z,0
2017-05-11T00:33:17.609Z,0
2017-05-11T00:34:18.975Z,0
2017-05-11T00:35:20.359Z,0
2017-05-11T00:36:21.720Z,0
2017-05-11T00:37:23.082Z,0
2017-05-11T00:38:24.436Z,0
2017-05-11T00:39:25.880Z,0
2017-05-11T00:40:27.238Z,0
2017-05-11T00:41:28.614Z,0
2017-05-11T00:42:29.972Z,0
2017-05-11T00:43:31.339Z,0
2017-05-11T00:44:32.704Z,0
2017-05-11T00:45:34.060Z,0
2017-05-11T00:46:35.419Z,0
2017-05-11T00:47:36.790Z,0
2017-05-11T00:48:38.156Z,0
2017-05-11T00:49:39.532Z,0
2017-05-11T00:50:40.904Z,0
2017-05-11T00:51:42.296Z,0
2017-05-11T00:52:43.653Z,0
2017-05-11T00:53:45.017Z,0
2017-05-11T00:54:46.372Z,0
2017-05-11T00:55:47.754Z,0
2017-05-11T00:56:49.123Z,0
2017-05-11T00:57:50.475Z,0
2017-05-11T00:58:51.836Z,0
2017-05-11T00:59:53.200Z,0
2017-05-11T01:00:54.568Z,0
2017-05-11T01:01:55.936Z,0
2017-05-11T01:02:57.304Z,0
2017-05-11T01:03:58.667Z,0
2017-05-11T01:05:00.027Z,0
2017-05-11T01:06:01.392Z,0
2017-05-11T01:07:02.747Z,0
2017-05-11T01:08:04.105Z,0
2017-05-11T01:09:05.472Z,0
2017-05-11T01:10:06.836Z,0
2017-05-11T01:11:08.203Z,0
2017-05-11T01:12:09.577Z,0
2017-05-11T01:13:10.963Z,0
2017-05-11T01:14:12.325Z,0
2017-05-11T01:15:13.685Z,0
2017-05-11T01:16:15.048Z,0
2017-05-11T01:17:16.407Z,0
2017-05-11T01:18:17.821Z,0
2017-05-11T01:19:19.619Z,0
2017-05-11T01:20:20.982Z,0
2017-05-11T01:21:22.417Z,0
2017-05-11T01:22:23.813Z,0
2017-05-11T01:23:25.177Z,0
2017-05-11T01:24:26.539Z,0
2017-05-11T01:25:27.906Z,0
2017-05-11T01:26:29.263Z,0
2017-05-11T01:27:30.627Z,0
2017-05-11T01:28:31.986Z,0
2017-05-11T01:29:33.390Z,0
2017-05-11T01:30:35.565Z,0
2017-05-11T01:31:36.988Z,0
2017-05-11T01:32:38.399Z,0
2017-05-11T01:33:39.897Z,0
2017-05-11T01:34:42.237Z,0
2017-05-11T01:35:43.652Z,0
2017-05-11T01:36:45.015Z,0
2017-05-11T01:37:46.379Z,0
2017-05-11T01:38:47.736Z,0
2017-05-11T01:39:49.095Z,0
2017-05-11T01:40:50.450Z,0
2017-05-11T01:41:51.812Z,0
2017-05-11T01:42:53.175Z,0
2017-05-11T01:43:54.536Z,0
2017-05-11T01:44:55.890Z,0
2017-05-11T01:45:57.253Z,0
2017-05-11T01:46:58.617Z,0
2017-05-11T01:47:59.986Z,0
2017-05-11T01:49:01.335Z,0
2017-05-11T01:50:02.701Z,0
2017-05-11T01:51:04.073Z,0
2017-05-11T01:52:05.419Z,0
2017-05-11T01:53:06.816Z,0
2017-05-11T01:54:08.174Z,0
2017-05-11T01:55:09.530Z,0
2017-05-11T01:56:10.890Z,0
2017-05-11T01:57:12.313Z,0
2017-05-11T01:58:13.677Z,0
2017-05-11T01:59:15.050Z,0
2017-05-11T02:00:16.405Z,0
2017-05-11T02:01:17.763Z,0
2017-05-11T02:02:19.130Z,0
2017-05-11T02:03:20.529Z,0
2017-05-11T02:04:21.888Z,0
2017-05-11T02:05:23.249Z,0
2017-05-11T02:06:24.658Z,0
2017-05-11T02:07:26.018Z,0
2017-05-11T02:08:27.375Z,0
2017-05-11T02:09:28.727Z,0
2017-05-11T02:10:30.098Z,0
2017-05-11T02:11:31.453Z,0
2017-05-11T02:12:32.813Z,0
2017-05-11T02:13:34.179Z,0
2017-05-11T02:14:35.545Z,0
2017-05-11T02:15:36.902Z,0
2017-05-11T02:16:38.263Z,0
2017-05-11T02:17:39.618Z,0
2017-05-11T02:18:41.047Z,0
2017-05-11T02:19:42.392Z,0
2017-05-11T02:20:43.755Z,0
2017-05-11T02:21:45.125Z,0
2017-05-11T02:22:46.489Z,0
2017-05-11T02:23:47.854Z,0
2017-05-11T02:24:49.208Z,0
2017-05-11T02:25:50.573Z,0
2017-05-11T02:26:51.946Z,0
2017-05-11T02:27:53.323Z,0
2017-05-11T02:28:54.741Z,0
2017-05-11T02:29:56.100Z,0
2017-05-11T02:30:57.457Z,0
2017-05-11T02:31:58.833Z,0
2017-05-11T02:33:00.190Z,0
2017-05-11T02:34:01.562Z,0
2017-05-11T02:35:02.923Z,0
2017-05-11T02:36:04.296Z,0
2017-05-11T02:37:05.678Z,0
2017-05-11T02:38:07.038Z,0
2017-05-11T02:39:08.404Z,0
2017-05-11T02:40:09.753Z,0
2017-05-11T02:41:11.107Z,0
2017-05-11T02:42:12.486Z,0
2017-05-11T02:43:13.859Z,0
2017-05-11T02:44:15.236Z,0
2017-05-11T02:45:16.599Z,0
2017-05-11T02:46:18.041Z,0
2017-05-11T02:47:19.419Z,0
2017-05-11T02:48:20.774Z,4
2017-05-11T02:49:22.147Z,4
2017-05-11T02:50:23.500Z,4
2017-05-11T02:51:24.862Z,4
2017-05-11T02:52:26.283Z,4
2017-05-11T02:53:27.636Z,8
2017-05-11T02:54:28.998Z,4
2017-05-11T02:55:30.367Z,8
2017-05-11T02:56:31.726Z,8
2017-05-11T02:57:33.115Z,8
2017-05-11T02:58:34.476Z,12
2017-05-11T02:59:35.837Z,12
2017-05-11T03:00:37.201Z,16
2017-05-11T03:01:38.558Z,16
2017-05-11T03:02:39.919Z,16
2017-05-11T03:03:41.276Z,24
2017-05-11T03:04:42.640Z,24
2017-05-11T03:05:43.998Z,28
2017-05-11T03:06:45.363Z,32
2017-05-11T03:07:46.725Z,40
2017-05-11T03:08:48.086Z,44
2017-05-11T03:09:49.444Z,48
2017-05-11T03:10:50.805Z,56
2017-05-11T03:11:52.162Z,64
2017-05-11T03:12:53.533Z,72
2017-05-11T03:13:54.975Z,80
2017-05-11T03:14:56.346Z,92
2017-05-11T03:15:57.726Z,104
2017-05-11T03:16:59.117Z,116
2017-05-11T03:18:00.486Z,128
2017-05-11T03:19:01.846Z,144
2017-05-11T03:20:03.303Z,156
2017-05-11T03:21:04.673Z,176
2017-05-11T03:22:06.042Z,192
2017-05-11T03:23:07.398Z,212
2017-05-11T03:24:08.767Z,228
2017-05-11T03:25:10.129Z,248
2017-05-11T03:26:11.504Z,272
2017-05-11T03:27:12.874Z,296
2017-05-11T03:28:14.245Z,316
2017-05-11T03:29:15.612Z,340
2017-05-11T03:30:17.019Z,364
2017-05-11T03:31:18.379Z,388
2017-05-11T03:32:19.741Z,412
2017-05-11T03:33:21.119Z,440
2017-05-11T03:34:22.482Z,464
2017-05-11T03:35:23.876Z,492
2017-05-11T03:36:25.235Z,516
2017-05-11T03:37:26.599Z,544
2017-05-11T03:38:27.951Z,572
2017-05-11T03:39:29.313Z,600
2017-05-11T03:40:30.678Z,624
2017-05-11T03:41:32.059Z,656
2017-05-11T03:42:33.417Z,684
2017-05-11T03:43:34.778Z,712
2017-05-11T03:44:36.644Z,736
2017-05-11T03:45:38.001Z,760
2017-05-11T03:46:39.364Z,792
2017-05-11T03:47:40.735Z,820
2017-05-11T03:48:42.102Z,848
2017-05-11T03:49:43.480Z,876
2017-05-11T03:50:44.849Z,908
2017-05-11T03:51:46.206Z,936
2017-05-11T03:52:47.571Z,964
2017-05-11T03:53:48.940Z,988
2017-05-11T03:54:50.305Z,1016
2017-05-11T03:55:51.662Z,1044
2017-05-11T03:56:53.024Z,1072
2017-05-11T03:57:54.396Z,1100
2017-05-11T03:58:55.761Z,1124
2017-05-11T03:59:57.134Z,1148
2017-05-11T04:00:58.502Z,1176
2017-05-11T04:01:59.872Z,1200
2017-05-11T04:03:01.243Z,1224
2017-05-11T04:04:02.608Z,1248
2017-05-11T04:05:04.033Z,1268
2017-05-11T04:06:05.405Z,1292
2017-05-11T04:07:06.801Z,1316
2017-05-11T04:08:08.132Z,1340
2017-05-11T04:09:09.495Z,1364
2017-05-11T04:10:10.857Z,1384
2017-05-11T04:11:12.215Z,1408
2017-05-11T04:12:13.584Z,1432
2017-05-11T04:13:14.955Z,1452
2017-05-11T04:14:16.343Z,1476
2017-05-11T04:15:17.700Z,1496
2017-05-11T04:16:19.070Z,1516
2017-05-11T04:17:20.431Z,1540
2017-05-11T04:18:21.796Z,1564
2017-05-11T04:19:23.151Z,1584
2017-05-11T04:20:24.521Z,1612
2017-05-11T04:21:25.896Z,1636
2017-05-11T04:22:27.265Z,1660
2017-05-11T04:23:28.692Z,1680
2017-05-11T04:24:30.066Z,1700
2017-05-11T04:25:31.433Z,1724
2017-05-11T04:26:32.798Z,1748
2017-05-11T04:27:34.169Z,1772
2017-05-11T04:28:35.554Z,1792
2017-05-11T04:29:36.917Z,1812
2017-05-11T04:30:38.285Z,1836
2017-05-11T04:31:40.409Z,1860
2017-05-11T04:32:41.775Z,1880
2017-05-11T04:33:43.147Z,1900
2017-05-11T04:34:44.508Z,1924
2017-05-11T04:35:45.871Z,1952
2017-05-11T04:36:47.236Z,1976
2017-05-11T04:37:48.601Z,2000
2017-05-11T04:38:49.973Z,2016
2017-05-11T04:39:51.333Z,2044
2017-05-11T04:40:52.696Z,2068
2017-05-11T04:41:54.080Z,2088
2017-05-11T04:42:55.456Z,2116
2017-05-11T04:43:56.823Z,2140
2017-05-11T04:44:58.203Z,2164
2017-05-11T04:45:59.572Z,2188
2017-05-11T04:47:00.924Z,2212
2017-05-11T04:48:02.283Z,2244
2017-05-11T04:49:03.653Z,2272
2017-05-11T04:50:05.017Z,2304
2017-05-11T04:51:06.376Z,2332
2017-05-11T04:52:07.742Z,2356
2017-05-11T04:53:09.107Z,2384
2017-05-11T04:54:10.478Z,2412
2017-05-11T04:55:11.844Z,2436
2017-05-11T04:56:13.205Z,2460
2017-05-11T04:57:14.562Z,2484
2017-05-11T04:58:15.934Z,2504
2017-05-11T04:59:17.295Z,2520
2017-05-11T05:00:18.671Z,2536
2017-05-11T05:01:20.036Z,2552
2017-05-11T05:02:21.394Z,2576
2017-05-11T05:03:22.759Z,2592
2017-05-11T05:04:24.182Z,2608
2017-05-11T05:05:25.544Z,2628
2017-05-11T05:06:26.913Z,2652
2017-05-11T05:07:28.279Z,2672
2017-05-11T05:08:29.642Z,2688
2017-05-11T05:09:31.005Z,2708
2017-05-11T05:10:32.378Z,2736
2017-05-11T05:11:33.809Z,2756
2017-05-11T05:12:35.175Z,2776
2017-05-11T05:13:36.553Z,2800
2017-05-11T05:14:37.918Z,2824
2017-05-11T05:15:39.291Z,2848
2017-05-11T05:16:40.651Z,2872
2017-05-11T05:17:42.039Z,2896
2017-05-11T05:18:43.403Z,2916
2017-05-11T05:19:44.766Z,2936
2017-05-11T05:20:46.175Z,2960
2017-05-11T05:21:47.509Z,2984
2017-05-11T05:22:48.878Z,3016
2017-05-11T05:23:50.253Z,3044
2017-05-11T05:24:51.623Z,3072
2017-05-11T05:25:52.978Z,3100
2017-05-11T05:26:54.364Z,3120
2017-05-11T05:27:55.756Z,3148
2017-05-11T05:28:57.123Z,3176
2017-05-11T05:29:58.485Z,3204
2017-05-11T05:30:59.865Z,3228
2017-05-11T05:32:01.244Z,3248
2017-05-11T05:33:02.622Z,3268
2017-05-11T05:34:03.999Z,3300
2017-05-11T05:35:05.366Z,3336
2017-05-11T05:36:07.392Z,3360
2017-05-11T05:37:08.751Z,3384
2017-05-11T05:38:10.127Z,3400
2017-05-11T05:39:11.506Z,3432
2017-05-11T05:40:12.920Z,3468
2017-05-11T05:41:14.308Z,3496
2017-05-11T05:42:15.682Z,3528
2017-05-11T05:43:17.628Z,3556
2017-05-11T05:44:18.980Z,3580
2017-05-11T05:45:20.345Z,3612
2017-05-11T05:46:21.754Z,3636
2017-05-11T05:47:23.100Z,3664
2017-05-11T05:48:24.485Z,3688
2017-05-11T05:49:25.855Z,3712
2017-05-11T05:50:27.227Z,3744
2017-05-11T05:51:28.608Z,3760
2017-05-11T05:52:29.979Z,3780
2017-05-11T05:53:31.359Z,3804
2017-05-11T05:54:32.728Z,3828
2017-05-11T05:55:34.093Z,3848
2017-05-11T05:56:35.457Z,3860
2017-05-11T05:57:36.827Z,3872
2017-05-11T05:58:38.248Z,3896
2017-05-11T05:59:39.686Z,3920
2017-05-11T06:00:41.194Z,3956
2017-05-11T06:01:42.565Z,3968
2017-05-11T06:02:43.962Z,3972
2017-05-11T06:03:45.341Z,4004
2017-05-11T06:04:47.504Z,4028
2017-05-11T06:05:48.879Z,4028
2017-05-11T06:06:50.261Z,4048
2017-05-11T06:07:51.633Z,4072
2017-05-11T06:08:53.020Z,4080
2017-05-11T06:09:54.376Z,4104
2017-05-11T06:10:55.742Z,4104
2017-05-11T06:11:57.113Z,4112
2017-05-11T06:12:58.524Z,4132
2017-05-11T06:13:59.928Z,4168
2017-05-11T06:15:01.327Z,4176
2017-05-11T06:16:02.706Z,4200
2017-05-11T06:17:04.083Z,4216
2017-05-11T06:18:05.455Z,4224
2017-05-11T06:19:06.816Z,4240
2017-05-11T06:20:08.193Z,4260
2017-05-11T06:21:09.556Z,4280
2017-05-11T06:22:10.936Z,4284
2017-05-11T06:23:12.360Z,4288
2017-05-11T06:24:13.710Z,4292
2017-05-11T06:25:15.083Z,4316
2017-05-11T06:26:16.492Z,4340
2017-05-11T06:27:17.853Z,4352
2017-05-11T06:28:19.258Z,4344
2017-05-11T06:29:20.643Z,4360
2017-05-11T06:30:22.262Z,4376
2017-05-11T06:31:23.774Z,4392
2017-05-11T06:32:25.150Z,4420
2017-05-11T06:33:26.525Z,4428
2017-05-11T06:34:27.903Z,4452
2017-05-11T06:35:29.269Z,4460
2017-05-11T06:36:30.637Z,4468
2017-05-11T06:37:32.015Z,4476
2017-05-11T06:38:33.384Z,4496
2017-05-11T06:39:34.754Z,4508
2017-05-11T06:40:36.115Z,4524
2017-05-11T06:41:37.535Z,4532
2017-05-11T06:42:38.920Z,4544
2017-05-11T06:43:40.293Z,4552
2017-05-11T06:44:41.657Z,4568
2017-05-11T06:45:43.028Z,4572
2017-05-11T06:46:44.482Z,4600
2017-05-11T06:47:45.873Z,4604
2017-05-11T06:48:47.296Z,4612
2017-05-11T06:49:48.718Z,4632
2017-05-11T06:50:50.086Z,4648
2017-05-11T06:51:51.449Z,4656
2017-05-11T06:52:52.815Z,4668
2017-05-11T06:53:54.187Z,4676
2017-05-11T06:54:55.591Z,4688
2017-05-11T06:55:56.924Z,4716
2017-05-11T06:56:58.287Z,4724
2017-05-11T06:57:59.658Z,4728
2017-05-11T06:59:01.025Z,4744
2017-05-11T07:00:02.394Z,4756
2017-05-11T07:01:03.809Z,4768
2017-05-11T07:02:05.178Z,4772
2017-05-11T07:03:06.544Z,4784
2017-05-11T07:04:07.909Z,4784
2017-05-11T07:05:09.275Z,4780
2017-05-11T07:06:10.651Z,4792
2017-05-11T07:07:12.029Z,4804
2017-05-11T07:08:13.399Z,4824
2017-05-11T07:09:14.760Z,4832
2017-05-11T07:10:16.135Z,4840
2017-05-11T07:11:18.278Z,4848
2017-05-11T07:12:19.646Z,4856
2017-05-11T07:13:21.528Z,4872
2017-05-11T07:14:22.915Z,4888
2017-05-11T07:15:24.287Z,4884
2017-05-11T07:16:25.654Z,4892
2017-05-11T07:17:27.027Z,4892
2017-05-11T07:18:28.405Z,4888
2017-05-11T07:19:29.766Z,4896
2017-05-11T07:20:31.127Z,4912
2017-05-11T07:21:32.494Z,4936
2017-05-11T07:22:33.860Z,4948
2017-05-11T07:23:35.237Z,4948
2017-05-11T07:24:36.606Z,4964
2017-05-11T07:25:37.969Z,4968
2017-05-11T07:26:39.338Z,4976
2017-05-11T07:27:40.709Z,4988
2017-05-11T07:28:42.069Z,4976
2017-05-11T07:29:43.479Z,4980
2017-05-11T07:30:44.842Z,4996
2017-05-11T07:31:46.221Z,5016
2017-05-11T07:32:47.575Z,5032
2017-05-11T07:33:48.948Z,5020
2017-05-11T07:34:50.320Z,5024
2017-05-11T07:35:51.695Z,5040
2017-05-11T07:36:53.133Z,5064
2017-05-11T07:37:54.517Z,5048
2017-05-11T07:38:55.896Z,5008
2017-05-11T07:39:57.271Z,5072
2017-05-11T07:40:58.631Z,5088
2017-05-11T07:42:00.024Z,5108
2017-05-11T07:43:01.396Z,5124
2017-05-11T07:44:02.780Z,5140
2017-05-11T07:45:04.165Z,5152
2017-05-11T07:46:05.515Z,5164
2017-05-11T07:47:06.906Z,5176
2017-05-11T07:48:08.272Z,5172
2017-05-11T07:49:09.630Z,5188
2017-05-11T07:50:11.015Z,5188
2017-05-11T07:51:12.388Z,5164
2017-05-11T07:52:13.771Z,5192
2017-05-11T07:53:15.163Z,5200
2017-05-11T07:54:16.522Z,5220
2017-05-11T07:55:17.894Z,5212
2017-05-11T07:56:19.273Z,5212
2017-05-11T07:57:20.635Z,5208
2017-05-11T07:58:22.009Z,5124
2017-05-11T07:59:23.390Z,5096
2017-05-11T08:00:24.756Z,5084
2017-05-11T08:01:26.132Z,5068
2017-05-11T08:02:27.515Z,5132
2017-05-11T08:03:28.902Z,5204
2017-05-11T08:04:30.279Z,5216
2017-05-11T08:05:31.645Z,5228
2017-05-11T08:06:33.022Z,5216
2017-05-11T08:07:34.403Z,5236
2017-05-11T08:08:35.780Z,5304
2017-05-11T08:09:37.152Z,5260
2017-05-11T08:10:38.523Z,5164
2017-05-11T08:11:39.893Z,5000
2017-05-11T08:12:41.273Z,5224
2017-05-11T08:13:42.642Z,5336
2017-05-11T08:14:44.009Z,5328
2017-05-11T08:15:45.379Z,5344
2017-05-11T08:16:46.740Z,5336
2017-05-11T08:17:48.117Z,5348
2017-05-11T08:18:49.483Z,5348
2017-05-11T08:19:50.855Z,5348
2017-05-11T08:20:52.226Z,5336
2017-05-11T08:21:53.597Z,5340
2017-05-11T08:22:55.028Z,5336
2017-05-11T08:23:56.393Z,5368
2017-05-11T08:24:57.762Z,5384
2017-05-11T08:25:59.130Z,5388
2017-05-11T08:27:00.499Z,5372
2017-05-11T08:28:01.874Z,5288
2017-05-11T08:29:03.233Z,5372
2017-05-11T08:30:04.615Z,5396
2017-05-11T08:31:05.977Z,5408
2017-05-11T08:32:07.347Z,5444
2017-05-11T08:33:08.725Z,5520
2017-05-11T08:34:10.105Z,5536
2017-05-11T08:35:11.471Z,5552
2017-05-11T08:36:12.849Z,5580
2017-05-11T08:37:14.216Z,5604
2017-05-11T08:38:15.592Z,5612
2017-05-11T08:39:16.966Z,5632
2017-05-11T08:40:18.326Z,5656
2017-05-11T08:41:19.701Z,5672
2017-05-11T08:42:21.096Z,5668
2017-05-11T08:43:22.451Z,5676
2017-05-11T08:44:23.835Z,5664
2017-05-11T08:45:25.200Z,5664
2017-05-11T08:46:26.572Z,5680
2017-05-11T08:47:27.996Z,5696
2017-05-11T08:48:29.375Z,5680
2017-05-11T08:49:30.746Z,5652
2017-05-11T08:50:32.121Z,5672
2017-05-11T08:51:33.488Z,5576
2017-05-11T08:52:34.918Z,5624
2017-05-11T08:53:36.250Z,5612
2017-05-11T08:54:37.634Z,5624
2017-05-11T08:55:39.010Z,5532
2017-05-11T08:56:40.382Z,5376
2017-05-11T08:57:41.747Z,5348
2017-05-11T08:58:43.126Z,5500
2017-05-11T08:59:44.973Z,5644
2017-05-11T09:00:46.347Z,5644
2017-05-11T09:01:47.716Z,5592
2017-05-11T09:02:49.091Z,5552
2017-05-11T09:03:51.302Z,5460
2017-05-11T09:04:52.670Z,5376
2017-05-11T09:05:54.037Z,5488
2017-05-11T09:06:55.407Z,5504
2017-05-11T09:07:56.924Z,5528
2017-05-11T09:08:58.292Z,5516
2017-05-11T09:09:59.739Z,5468
2017-05-11T09:11:01.115Z,5348
2017-05-11T09:12:02.489Z,5272
2017-05-11T09:13:03.865Z,5108
2017-05-11T09:14:05.251Z,5248
2017-05-11T09:15:06.618Z,5200
2017-05-11T09:16:07.998Z,5212
2017-05-11T09:17:09.369Z,5252
2017-05-11T09:18:10.743Z,5284
2017-05-11T09:19:12.111Z,5332
2017-05-11T09:20:13.478Z,5424
2017-05-11T09:21:14.847Z,5468
2017-05-11T09:22:16.231Z,5536
2017-05-11T09:23:17.601Z,5760
2017-05-11T09:24:18.969Z,5848
2017-05-11T09:25:20.359Z,5956
2017-05-11T09:26:21.748Z,6056
2017-05-11T09:27:23.161Z,6208
2017-05-11T09:28:24.537Z,6368
2017-05-11T09:29:25.918Z,6692
2017-05-11T09:30:27.291Z,6860
2017-05-11T09:31:28.660Z,6932
2017-05-11T09:32:30.034Z,7096
2017-05-11T09:33:31.403Z,7304
2017-05-11T09:34:32.772Z,7424
2017-05-11T09:35:34.143Z,7544
2017-05-11T09:36:35.517Z,7560
2017-05-11T09:37:37.667Z,7388
2017-05-11T09:38:39.037Z,7444
2017-05-11T09:39:41.049Z,7392
2017-05-11T09:40:42.424Z,7312
2017-05-11T09:41:43.785Z,7660
2017-05-11T09:42:45.162Z,7660
2017-05-11T09:43:46.543Z,7628
2017-05-11T09:44:47.922Z,7588
2017-05-11T09:45:49.295Z,7464
2017-05-11T09:46:50.677Z,7472
2017-05-11T09:47:52.067Z,7524
2017-05-11T09:48:53.439Z,7080
2017-05-11T09:49:54.803Z,6800
2017-05-11T09:50:56.179Z,7340
2017-05-11T09:51:57.551Z,7332
2017-05-11T09:52:58.930Z,7532
2017-05-11T09:54:00.315Z,7260
2017-05-11T09:55:01.688Z,7072
2017-05-11T09:56:03.085Z,7080
2017-05-11T09:57:04.459Z,7432
2017-05-11T09:58:05.819Z,7496
2017-05-11T09:59:07.218Z,7460
2017-05-11T10:00:08.597Z,7828
2017-05-11T10:01:09.966Z,7528
2017-05-11T10:02:11.340Z,7568
2017-05-11T10:03:12.707Z,8100
2017-05-11T10:04:14.090Z,8540
2017-05-11T10:05:15.462Z,8820
2017-05-11T10:06:16.833Z,8944
2017-05-11T10:07:18.210Z,9036
2017-05-11T10:08:19.610Z,9144
2017-05-11T10:09:21.900Z,9056
2017-05-11T10:10:23.266Z,8944
2017-05-11T10:11:24.642Z,8964
2017-05-11T10:12:26.015Z,8548
2017-05-11T10:13:27.381Z,9404
2017-05-11T10:14:28.748Z,9772
2017-05-11T10:15:30.128Z,9740
2017-05-11T10:16:31.514Z,9760
2017-05-11T10:17:32.896Z,9304
2017-05-11T10:18:34.269Z,9728
2017-05-11T10:19:35.639Z,10136
2017-05-11T10:20:37.022Z,10536
2017-05-11T10:21:38.396Z,10524
2017-05-11T10:22:39.787Z,10488
2017-05-11T10:23:41.162Z,10516
2017-05-11T10:24:42.534Z,10648
2017-05-11T10:25:44.445Z,10700
2017-05-11T10:26:45.821Z,10784
2017-05-11T10:27:47.193Z,10772
2017-05-11T10:28:48.560Z,10880
2017-05-11T10:29:49.940Z,10992
2017-05-11T10:30:51.307Z,11208
2017-05-11T10:31:52.678Z,11296
2017-05-11T10:32:54.070Z,11244
2017-05-11T10:33:55.449Z,10984
2017-05-11T10:34:56.872Z,10952
2017-05-11T10:35:58.258Z,10708
2017-05-11T10:36:59.637Z,10428
2017-05-11T10:38:01.014Z,10112
2017-05-11T10:39:02.386Z,9732
2017-05-11T10:40:03.751Z,9524
2017-05-11T10:41:05.125Z,9240
2017-05-11T10:42:06.524Z,9048
2017-05-11T10:43:07.975Z,8840
2017-05-11T10:44:09.361Z,8292
2017-05-11T10:45:10.746Z,6904
2017-05-11T10:46:12.230Z,7480
2017-05-11T10:47:13.596Z,7976
2017-05-11T10:48:14.968Z,8108
2017-05-11T10:49:16.334Z,7832
2017-05-11T10:50:17.728Z,7748
2017-05-11T10:51:19.103Z,7016
2017-05-11T10:52:20.474Z,6668
2017-05-11T10:53:21.853Z,6884
2017-05-11T10:54:23.233Z,6968
2017-05-11T10:55:24.635Z,6840
2017-05-11T10:56:26.067Z,6780
2017-05-11T10:57:27.443Z,7028
2017-05-11T10:58:29.789Z,6784
2017-05-11T10:59:31.366Z,6940
2017-05-11T11:00:32.729Z,6976
2017-05-11T11:01:34.141Z,7132
2017-05-11T11:02:35.513Z,7168
2017-05-11T11:03:36.885Z,7360
2017-05-11T11:04:38.254Z,7552
2017-05-11T11:05:39.633Z,7888
2017-05-11T11:06:41.004Z,8028
2017-05-11T11:07:42.435Z,7996
2017-05-11T11:08:44.448Z,8448
2017-05-11T11:09:45.831Z,8584
2017-05-11T11:10:47.205Z,8628
2017-05-11T11:11:48.590Z,8636
2017-05-11T11:12:49.964Z,8660
2017-05-11T11:13:51.340Z,8564
2017-05-11T11:14:52.723Z,8376
2017-05-11T11:15:54.126Z,8108
2017-05-11T11:16:55.496Z,7936
2017-05-11T11:17:56.869Z,7760
2017-05-11T11:18:58.246Z,7548
2017-05-11T11:19:59.643Z,7328
2017-05-11T11:21:01.017Z,7288
2017-05-11T11:22:02.391Z,7372
2017-05-11T11:23:03.796Z,7272
2017-05-11T11:24:05.169Z,7184
2017-05-11T11:25:06.538Z,7064
2017-05-11T11:26:07.930Z,6948
2017-05-11T11:27:09.298Z,6756
2017-05-11T11:28:10.678Z,6576
2017-05-11T11:29:12.042Z,6408
2017-05-11T11:30:13.433Z,6296
2017-05-11T11:31:14.858Z,6152
2017-05-11T11:32:16.236Z,6044
2017-05-11T11:33:17.622Z,5916
2017-05-11T11:34:19.030Z,5796
2017-05-11T11:35:21.068Z,5680
2017-05-11T11:36:22.442Z,5612
2017-05-11T11:37:23.822Z,5612
2017-05-11T11:38:26.071Z,5616
2017-05-11T11:39:27.443Z,5596
2017-05-11T11:40:28.832Z,5588
2017-05-11T11:41:30.220Z,5592
2017-05-11T11:42:31.591Z,5672
2017-05-11T11:43:32.970Z,5748
2017-05-11T11:44:34.346Z,5828
2017-05-11T11:45:35.726Z,5876
2017-05-11T11:46:37.106Z,5904
2017-05-11T11:47:38.477Z,5948
2017-05-11T11:48:39.846Z,6004
2017-05-11T11:49:41.220Z,6056
2017-05-11T11:50:42.591Z,6056
2017-05-11T11:51:43.964Z,6024
2017-05-11T11:52:45.337Z,5948
2017-05-11T11:53:46.708Z,5876
2017-05-11T11:54:48.086Z,5788
2017-05-11T11:55:49.456Z,5696
2017-05-11T11:56:50.844Z,5612
2017-05-11T11:57:52.218Z,5504
2017-05-11T11:58:53.592Z,5444
2017-05-11T11:59:54.965Z,5352
2017-05-11T12:00:56.356Z,5280
2017-05-11T12:01:57.727Z,5220
2017-05-11T12:02:59.099Z,5148
2017-05-11T12:04:00.475Z,5060
2017-05-11T12:05:01.852Z,4996
2017-05-11T12:06:03.224Z,4940
2017-05-11T12:07:04.608Z,4864
2017-05-11T12:08:05.983Z,4772
2017-05-11T12:09:07.364Z,4656
2017-05-11T12:10:08.729Z,4624
2017-05-11T12:11:10.101Z,4632
2017-05-11T12:12:11.471Z,4588
2017-05-11T12:13:12.848Z,4552
2017-05-11T12:14:14.223Z,4512
2017-05-11T12:15:15.597Z,4468
2017-05-11T12:16:16.969Z,4436
2017-05-11T12:17:18.374Z,4396
2017-05-11T12:18:19.791Z,4368
2017-05-11T12:19:21.157Z,4368
2017-05-11T12:20:22.541Z,4348
2017-05-11T12:21:23.939Z,4336
2017-05-11T12:22:25.314Z,4336
2017-05-11T12:23:26.692Z,4352
2017-05-11T12:24:28.063Z,4340
2017-05-11T12:25:29.431Z,4292
2017-05-11T12:26:30.797Z,4248
2017-05-11T12:27:32.178Z,4212
2017-05-11T12:28:33.550Z,4180
2017-05-11T12:29:34.917Z,4128
2017-05-11T12:30:36.335Z,4104
2017-05-11T12:31:37.715Z,4048
2017-05-11T12:32:39.079Z,4004
2017-05-11T12:33:40.450Z,3972
2017-05-11T12:34:42.643Z,3956
2017-05-11T12:35:44.022Z,3936
2017-05-11T12:36:45.397Z,3888
2017-05-11T12:37:46.771Z,3852
2017-05-11T12:38:48.142Z,3836
2017-05-11T12:39:49.516Z,3832
2017-05-11T12:40:50.910Z,3824
2017-05-11T12:41:52.289Z,3808
2017-05-11T12:42:53.662Z,3792
2017-05-11T12:43:55.181Z,3812
2017-05-11T12:44:56.559Z,3832
2017-05-11T12:45:58.045Z,3860
2017-05-11T12:46:59.413Z,3880
2017-05-11T12:48:00.783Z,3948
2017-05-11T12:49:02.155Z,4028
2017-05-11T12:50:03.531Z,4132
2017-05-11T12:51:04.905Z,4216
2017-05-11T12:52:06.280Z,4320
2017-05-11T12:53:07.658Z,4440
2017-05-11T12:54:09.031Z,4580
2017-05-11T12:55:10.408Z,4712
2017-05-11T12:56:11.779Z,4864
2017-05-11T12:57:13.151Z,5028
2017-05-11T12:58:14.523Z,5196
2017-05-11T12:59:15.896Z,5396
2017-05-11T13:00:17.291Z,5628
2017-05-11T13:01:18.660Z,5868
2017-05-11T13:02:20.035Z,6144
2017-05-11T13:03:21.402Z,6444
2017-05-11T13:04:22.782Z,6716
2017-05-11T13:05:24.153Z,6940
2017-05-11T13:06:25.520Z,7080
2017-05-11T13:07:26.896Z,7184
2017-05-11T13:08:28.300Z,7264
2017-05-11T13:09:29.670Z,7328
2017-05-11T13:10:31.043Z,7412
2017-05-11T13:11:32.420Z,7456
2017-05-11T13:12:33.788Z,7512
2017-05-11T13:13:35.159Z,7544
2017-05-11T13:14:36.537Z,7600
2017-05-11T13:15:37.945Z,7656
2017-05-11T13:16:39.338Z,7728
2017-05-11T13:17:40.720Z,7780
2017-05-11T13:18:42.091Z,7824
2017-05-11T13:19:44.274Z,7880
2017-05-11T13:20:45.647Z,7932
2017-05-11T13:21:47.017Z,8016
2017-05-11T13:22:48.386Z,8100
2017-05-11T13:23:49.761Z,8176
2017-05-11T13:24:51.141Z,8256
2017-05-11T13:25:52.523Z,8312
2017-05-11T13:26:53.890Z,8404
2017-05-11T13:27:55.319Z,8512
2017-05-11T13:28:56.698Z,8580
2017-05-11T13:29:58.080Z,8640
2017-05-11T13:30:59.455Z,8708
2017-05-11T13:32:00.829Z,8784
2017-05-11T13:33:02.197Z,8876
2017-05-11T13:34:03.574Z,8952
2017-05-11T13:35:04.951Z,9016
2017-05-11T13:36:06.328Z,9036
2017-05-11T13:37:07.692Z,9108
2017-05-11T13:38:09.070Z,9220
2017-05-11T13:39:10.446Z,9224
2017-05-11T13:40:11.805Z,9324
2017-05-11T13:41:13.184Z,9404
2017-05-11T13:42:14.557Z,9472
2017-05-11T13:43:15.935Z,9540
2017-05-11T13:44:17.302Z,9612
2017-05-11T13:45:18.678Z,9676
2017-05-11T13:46:20.048Z,9744
2017-05-11T13:47:21.419Z,9840
2017-05-11T13:48:22.798Z,9920
2017-05-11T13:49:24.175Z,9996
2017-05-11T13:50:25.550Z,10076
2017-05-11T13:51:26.921Z,10132
2017-05-11T13:52:28.307Z,10184
2017-05-11T13:53:29.685Z,10272
2017-05-11T13:54:31.056Z,10328
2017-05-11T13:55:32.431Z,10400
2017-05-11T13:56:33.835Z,10448